createdAt,value
2019-02-28T00:00:06.603Z,101406.17
2019-02-28T00:04:59.376Z,101400.34
2019-02-28T00:09:52.430Z,101403.08
2019-02-28T00:14:45.648Z,101406.37
2019-02-28T00:19:38.647Z,101399.17
2019-02-28T00:24:31.679Z,101408.53
2019-02-28T00:29:24.626Z,101398.44
2019-02-28T00:34:17.630Z,101385.00
2019-02-28T00:39:10.613Z,101383.28
2019-02-28T00:44:04.467Z,101376.20
2019-02-28T00:48:57.626Z,101379.53
2019-02-28T00:53:50.561Z,101373.89
2019-02-28T00:58:43.461Z,101365.09
2019-02-28T01:03:36.459Z,101372.78
2019-02-28T01:08:29.338Z,101366.98
2019-02-28T01:13:26.994Z,101359.05
2019-02-28T01:18:17.040Z,101348.05
2019-02-28T01:23:09.940Z,101352.75
2019-02-28T01:28:03.972Z,101342.88
2019-02-28T01:32:57.371Z,101340.06
2019-02-28T01:37:52.416Z,101329.47
2019-02-28T01:42:45.124Z,101337.52
2019-02-28T01:47:38.003Z,101330.98
2019-02-28T01:52:32.926Z,101330.78
2019-02-28T01:57:27.626Z,101329.44
2019-02-28T02:02:21.553Z,101332.90
2019-02-28T02:07:14.766Z,101321.21
2019-02-28T02:12:07.638Z,101310.05
2019-02-28T02:17:01.080Z,101296.99
2019-02-28T02:21:54.953Z,101293.98
2019-02-28T02:26:47.926Z,101291.27
2019-02-28T02:31:43.460Z,101284.52
2019-02-28T02:36:35.678Z,101267.12
2019-02-28T02:41:33.546Z,101260.44
2019-02-28T02:46:23.349Z,101255.06
2019-02-28T02:51:16.251Z,101246.98
2019-02-28T02:56:10.970Z,101239.05
2019-02-28T03:01:03.863Z,101233.86
2019-02-28T03:05:57.110Z,101237.05
2019-02-28T03:10:51.878Z,101242.52
2019-02-28T03:15:44.931Z,101241.70
2019-02-28T03:20:41.202Z,101246.06
2019-02-28T03:25:32.730Z,101243.55
2019-02-28T03:30:31.074Z,101242.53
2019-02-28T03:35:20.748Z,101235.48
2019-02-28T03:40:13.943Z,101240.48
2019-02-28T03:45:08.877Z,101236.53
2019-02-28T03:50:01.723Z,101237.81
2019-02-28T03:54:55.829Z,101239.86
2019-02-28T03:59:55.385Z,101231.33
2019-02-28T04:04:48.822Z,101222.03
2019-02-28T04:09:43.723Z,101230.72
2019-02-28T04:14:34.961Z,101226.31
2019-02-28T04:19:27.925Z,101225.78
2019-02-28T04:24:20.894Z,101222.68
2019-02-28T04:29:13.817Z,101223.28
2019-02-28T04:34:12.934Z,101220.17
2019-02-28T04:39:05.763Z,101224.25
2019-02-28T04:43:58.744Z,101230.09
2019-02-28T04:48:51.698Z,101226.38
2019-02-28T04:53:44.645Z,101210.64
2019-02-28T04:58:39.131Z,101203.68
2019-02-28T05:03:32.051Z,101206.52
2019-02-28T05:08:24.993Z,101210.14
2019-02-28T05:13:17.924Z,101215.23
2019-02-28T05:18:10.915Z,101213.31
2019-02-28T05:23:03.762Z,101212.09
2019-02-28T05:27:56.717Z,101207.31
2019-02-28T05:32:49.584Z,101201.41
2019-02-28T05:37:47.001Z,101208.59
2019-02-28T05:42:37.426Z,101200.67
2019-02-28T05:47:32.440Z,101205.17
2019-02-28T05:52:25.773Z,101208.34
2019-02-28T05:57:18.795Z,101208.12
2019-02-28T06:02:12.839Z,101205.17
2019-02-28T06:07:05.771Z,101204.53
2019-02-28T06:11:58.767Z,101200.41
2019-02-28T06:16:51.745Z,101182.41
2019-02-28T06:21:44.677Z,101178.81
2019-02-28T06:26:37.713Z,101195.17
2019-02-28T06:31:30.701Z,101192.69
2019-02-28T06:36:25.679Z,101187.34
2019-02-28T06:41:19.427Z,101194.22
2019-02-28T06:46:12.417Z,101196.60
2019-02-28T06:51:05.340Z,101206.19
2019-02-28T06:55:58.302Z,101203.36
2019-02-28T07:00:51.236Z,101205.07
2019-02-28T07:05:45.516Z,101200.58
2019-02-28T07:10:38.483Z,101188.40
2019-02-28T07:15:31.485Z,101193.25
2019-02-28T07:20:24.514Z,101182.66
2019-02-28T07:25:17.479Z,101181.73
2019-02-28T07:30:17.344Z,101171.79
2019-02-28T07:35:08.124Z,101166.20
2019-02-28T07:40:01.079Z,101167.94
2019-02-28T07:44:57.962Z,101168.97
2019-02-28T07:49:50.172Z,101182.33
2019-02-28T07:54:43.425Z,101189.48
2019-02-28T07:59:40.899Z,101179.81
2019-02-28T08:04:31.151Z,101173.85
2019-02-28T08:09:30.859Z,101166.56
2019-02-28T08:14:23.715Z,101164.64
2019-02-28T08:19:16.638Z,101162.06
2019-02-28T08:24:09.583Z,101164.11
2019-02-28T08:29:02.534Z,101153.19
2019-02-28T08:33:55.457Z,101153.70
2019-02-28T08:38:48.350Z,101148.41
2019-02-28T08:43:41.350Z,101142.60
2019-02-28T08:48:34.963Z,101143.97
2019-02-28T08:53:28.004Z,101148.86
2019-02-28T08:58:21.232Z,101147.98
2019-02-28T09:03:14.186Z,101144.42
2019-02-28T09:08:07.065Z,101147.34
2019-02-28T09:13:00.111Z,101134.52
2019-02-28T09:17:58.399Z,101140.11
2019-02-28T09:22:47.911Z,101133.42
2019-02-28T09:27:40.905Z,101112.91
2019-02-28T09:32:33.895Z,101097.91
2019-02-28T09:37:29.542Z,101086.85
2019-02-28T09:42:21.679Z,101092.66
2019-02-28T09:47:14.593Z,101100.44
2019-02-28T09:52:07.522Z,101094.59
2019-02-28T09:57:01.175Z,101098.08
2019-02-28T10:02:01.179Z,101096.03
2019-02-28T10:06:51.553Z,101090.08
2019-02-28T10:11:43.818Z,101106.69
2019-02-28T10:16:36.712Z,101101.30
2019-02-28T10:21:29.578Z,101093.85
2019-02-28T10:26:22.584Z,101089.41
2019-02-28T10:31:15.453Z,101091.91
2019-02-28T10:36:12.806Z,101101.13
2019-02-28T10:41:04.976Z,101102.05
2019-02-28T10:45:58.044Z,101096.72
2019-02-28T10:50:50.998Z,101109.81
2019-02-28T10:55:44.130Z,101105.72
2019-02-28T11:00:39.113Z,101110.34
2019-02-28T11:05:33.171Z,101110.98
2019-02-28T11:10:35.513Z,101115.36
2019-02-28T11:15:27.192Z,101108.34
2019-02-28T11:20:22.346Z,101087.50
2019-02-28T11:25:16.379Z,101087.83
2019-02-28T11:30:12.764Z,101081.52
2019-02-28T11:35:06.713Z,101071.80
2019-02-28T11:39:59.748Z,101075.00
2019-02-28T11:44:52.687Z,101069.50
2019-02-28T11:49:46.785Z,101076.73
2019-02-28T11:54:40.804Z,101069.22
2019-02-28T11:59:33.685Z,101069.83
2019-02-28T12:04:26.718Z,101075.80
2019-02-28T12:09:20.098Z,101062.34
2019-02-28T12:14:13.252Z,101070.75
2019-02-28T12:19:06.219Z,101069.36
2019-02-28T12:24:00.576Z,101064.15
2019-02-28T12:28:54.385Z,101048.81
2019-02-28T12:33:47.427Z,101043.73
2019-02-28T12:38:40.351Z,101052.07
2019-02-28T12:43:36.894Z,101052.53
2019-02-28T12:48:34.615Z,101060.99
2019-02-28T12:53:32.482Z,101073.77
2019-02-28T12:58:37.222Z,101074.14
2019-02-28T13:03:27.326Z,101095.14
2019-02-28T13:08:23.709Z,101106.14
2019-02-28T13:13:21.479Z,101126.85
2019-02-28T13:18:20.319Z,101120.48
2019-02-28T13:23:17.169Z,101131.97
2019-02-28T13:28:17.701Z,101139.45
2019-02-28T13:33:15.045Z,101149.90
2019-02-28T13:38:09.635Z,101152.29
2019-02-28T13:43:06.346Z,101145.19
2019-02-28T13:48:03.496Z,101158.49
2019-02-28T13:53:02.471Z,101145.43
2019-02-28T13:57:57.651Z,101147.92
2019-02-28T14:02:56.235Z,101144.48
2019-02-28T14:07:52.685Z,101153.17
2019-02-28T14:12:48.337Z,101142.33
2019-02-28T14:17:44.322Z,101163.22
2019-02-28T14:22:42.708Z,101152.52
2019-02-28T14:27:38.580Z,101144.91
2019-02-28T14:32:34.792Z,101142.23
2019-02-28T14:37:31.904Z,101142.06
2019-02-28T14:42:24.902Z,101145.75
2019-02-28T14:47:17.924Z,101145.25
2019-02-28T14:52:11.109Z,101143.91
2019-02-28T14:57:04.122Z,101134.50
2019-02-28T15:01:57.046Z,101137.92
2019-02-28T15:06:49.964Z,101125.37
2019-02-28T15:11:43.710Z,101131.69
2019-02-28T15:16:37.875Z,101131.39
2019-02-28T15:21:30.851Z,101134.78
2019-02-28T15:26:26.627Z,101131.13
2019-02-28T15:31:18.603Z,101131.84
2019-02-28T15:36:11.538Z,101123.27
2019-02-28T15:41:04.507Z,101124.33
2019-02-28T15:45:57.480Z,101114.41
2019-02-28T15:50:51.769Z,101117.45
2019-02-28T15:55:45.634Z,101110.52
2019-02-28T16:00:38.899Z,101109.28
2019-02-28T16:05:32.194Z,101108.29
2019-02-28T16:10:28.570Z,101096.94
2019-02-28T16:15:22.487Z,101094.84
2019-02-28T16:20:15.504Z,101091.06
2019-02-28T16:25:18.496Z,101082.83
2019-02-28T16:30:15.680Z,101076.88
2019-02-28T16:35:14.543Z,101071.91
2019-02-28T16:40:11.907Z,101070.43
2019-02-28T16:45:11.293Z,101075.06
2019-02-28T16:50:05.275Z,101070.52
2019-02-28T16:55:00.349Z,101080.41
2019-02-28T16:59:55.554Z,101077.17
2019-02-28T17:04:52.941Z,101071.34
2019-02-28T17:09:48.277Z,101077.80
2019-02-28T17:14:47.938Z,101076.52
2019-02-28T17:19:42.262Z,101076.34
2019-02-28T17:24:38.210Z,101074.50
2019-02-28T17:29:45.819Z,101062.72
2019-02-28T17:34:41.979Z,101063.86
2019-02-28T17:39:37.981Z,101078.45
2019-02-28T17:45:02.242Z,101077.55
2019-02-28T17:50:57.631Z,101061.11
2019-02-28T17:57:11.630Z,101068.13
2019-02-28T18:03:01.224Z,101064.85
2019-02-28T18:08:52.124Z,101071.34
2019-02-28T18:14:49.392Z,101047.58
2019-02-28T18:20:49.526Z,101059.50
2019-02-28T18:26:39.251Z,101054.88
2019-02-28T18:31:41.863Z,101052.02
2019-02-28T18:36:43.424Z,101053.19
2019-02-28T18:41:42.166Z,101056.02
2019-02-28T18:46:38.719Z,101052.33
2019-02-28T18:51:31.637Z,101055.91
2019-02-28T18:56:24.689Z,101050.77
2019-02-28T19:01:17.667Z,101032.36
2019-02-28T19:06:10.706Z,101034.11
2019-02-28T19:11:03.839Z,101030.88
2019-02-28T19:15:57.722Z,101020.59
2019-02-28T19:20:50.737Z,101026.53
2019-02-28T19:25:43.666Z,101023.80
2019-02-28T19:30:37.123Z,101022.14
2019-02-28T19:35:30.031Z,101017.59
2019-02-28T19:40:22.950Z,101008.97
2019-02-28T19:45:16.356Z,101007.59
2019-02-28T19:50:10.466Z,100997.08
2019-02-28T19:55:03.932Z,100987.17
2019-02-28T19:59:56.893Z,100986.00
2019-02-28T20:04:49.785Z,100979.30
2019-02-28T20:09:42.776Z,100967.16
2019-02-28T20:14:35.706Z,100968.00
2019-02-28T20:19:28.694Z,100960.59
2019-02-28T20:24:21.748Z,100957.35
2019-02-28T20:29:14.752Z,100954.29
2019-02-28T20:34:08.012Z,100959.84
2019-02-28T20:39:01.427Z,100960.15
2019-02-28T20:43:54.522Z,100959.22
2019-02-28T20:48:47.429Z,100962.00
2019-02-28T20:53:40.395Z,100962.66
2019-02-28T20:58:33.287Z,100959.77
2019-02-28T21:03:26.232Z,100957.88
2019-02-28T21:08:19.239Z,100950.34
2019-02-28T21:13:12.157Z,100948.66
2019-02-28T21:18:06.300Z,100944.84
2019-02-28T21:22:59.331Z,100942.34
2019-02-28T21:27:52.337Z,100937.27
2019-02-28T21:32:45.405Z,100933.97
2019-02-28T21:37:38.293Z,100931.92
2019-02-28T21:42:31.610Z,100927.21
2019-02-28T21:47:24.507Z,100925.14
2019-02-28T21:52:17.375Z,100921.84
2019-02-28T21:57:10.338Z,100920.41
2019-02-28T22:02:03.315Z,100912.13
2019-02-28T22:06:56.286Z,100914.50
2019-02-28T22:11:49.668Z,100917.69
2019-02-28T22:16:42.571Z,100904.84
2019-02-28T22:21:35.475Z,100906.94
2019-02-28T22:26:28.425Z,100897.14
2019-02-28T22:31:43.908Z,100884.69
2019-02-28T22:36:42.200Z,100879.38
2019-02-28T22:41:35.146Z,100873.06
2019-02-28T22:46:28.004Z,100859.11
2019-02-28T22:51:20.859Z,100856.70
2019-02-28T22:56:13.817Z,100852.61
2019-02-28T23:01:11.855Z,100851.48
2019-02-28T23:06:05.713Z,100848.28
2019-02-28T23:10:58.753Z,100852.18
2019-02-28T23:15:51.916Z,100842.83
2019-02-28T23:20:44.905Z,100837.72
2019-02-28T23:25:37.872Z,100837.02
2019-02-28T23:30:54.609Z,100827.95
2019-02-28T23:35:49.219Z,100821.39
2019-02-28T23:40:42.194Z,100821.27
2019-02-28T23:45:35.148Z,100810.03
2019-02-28T23:50:28.056Z,100808.87
2019-02-28T23:55:20.921Z,100805.51
